createdAt,value
2023-06-18T00:00:18.963Z,54.29
2023-06-18T00:00:40.133Z,54.27
2023-06-18T00:01:01.270Z,54.30
2023-06-18T00:01:22.350Z,54.33
2023-06-18T00:01:43.452Z,54.27
2023-06-18T00:02:04.561Z,54.34
2023-06-18T00:02:25.663Z,54.47
2023-06-18T00:02:46.742Z,54.48
2023-06-18T00:03:07.860Z,54.37
2023-06-18T00:03:28.944Z,54.40
2023-06-18T00:03:50.022Z,54.34
2023-06-18T00:04:11.283Z,54.25
2023-06-18T00:04:32.410Z,54.24
2023-06-18T00:04:53.456Z,54.27
2023-06-18T00:05:14.600Z,54.36
2023-06-18T00:05:35.772Z,54.26
2023-06-18T00:05:56.885Z,54.05
2023-06-18T00:06:18.008Z,54.08
2023-06-18T00:06:39.053Z,54.10
2023-06-18T00:07:00.154Z,54.10
2023-06-18T00:07:21.228Z,54.12
2023-06-18T00:07:42.257Z,54.12
2023-06-18T00:08:03.316Z,54.10
2023-06-18T00:08:24.370Z,54.23
2023-06-18T00:08:45.481Z,54.27
2023-06-18T00:09:06.510Z,54.35
2023-06-18T00:09:27.580Z,54.38
2023-06-18T00:09:48.678Z,54.40
2023-06-18T00:10:09.723Z,54.22
2023-06-18T00:10:30.777Z,54.14
2023-06-18T00:10:51.837Z,54.12
2023-06-18T00:11:12.934Z,54.15
2023-06-18T00:11:34.092Z,54.23
2023-06-18T00:11:55.139Z,54.31
2023-06-18T00:12:16.227Z,54.17
2023-06-18T00:12:37.294Z,54.15
2023-06-18T00:12:58.340Z,54.09
2023-06-18T00:13:19.391Z,54.01
2023-06-18T00:13:40.466Z,53.94
2023-06-18T00:14:01.516Z,53.99
2023-06-18T00:14:22.690Z,54.05
2023-06-18T00:14:43.759Z,53.92
2023-06-18T00:15:04.864Z,53.83
2023-06-18T00:15:25.929Z,53.77
2023-06-18T00:15:47.037Z,53.77
2023-06-18T00:16:08.109Z,53.73
2023-06-18T00:16:29.224Z,53.69
2023-06-18T00:16:50.477Z,53.89
2023-06-18T00:17:11.529Z,54.03
2023-06-18T00:17:32.643Z,53.99
2023-06-18T00:17:53.794Z,53.80
2023-06-18T00:18:14.855Z,53.68
2023-06-18T00:18:35.909Z,53.75
2023-06-18T00:18:56.965Z,53.94
2023-06-18T00:19:18.018Z,54.13
2023-06-18T00:19:39.093Z,54.16
2023-06-18T00:20:00.161Z,54.07
2023-06-18T00:20:21.439Z,54.14
2023-06-18T00:20:42.619Z,54.23
2023-06-18T00:21:03.665Z,54.24
2023-06-18T00:21:24.750Z,54.21
2023-06-18T00:21:45.832Z,54.31
2023-06-18T00:22:06.914Z,54.27
2023-06-18T00:22:28.007Z,54.21
2023-06-18T00:22:49.064Z,54.20
2023-06-18T00:23:10.109Z,54.15
2023-06-18T00:23:31.152Z,54.14
2023-06-18T00:23:52.249Z,54.18
2023-06-18T00:24:13.364Z,54.22
2023-06-18T00:24:34.466Z,54.22
2023-06-18T00:24:55.531Z,54.28
2023-06-18T00:25:16.584Z,54.27
2023-06-18T00:25:37.692Z,54.33
2023-06-18T00:25:58.742Z,54.46
2023-06-18T00:26:19.810Z,54.47
2023-06-18T00:26:40.854Z,54.45
2023-06-18T00:27:02.132Z,54.33
2023-06-18T00:27:23.247Z,54.31
2023-06-18T00:27:44.317Z,54.41
2023-06-18T00:28:05.360Z,54.47
2023-06-18T00:28:26.427Z,54.45
2023-06-18T00:28:47.472Z,54.47
2023-06-18T00:29:08.533Z,54.47
2023-06-18T00:29:29.597Z,54.53
2023-06-18T00:29:50.668Z,54.60
2023-06-18T00:30:11.728Z,54.70
2023-06-18T00:30:32.813Z,54.79
2023-06-18T00:30:53.874Z,54.74
2023-06-18T00:31:15.041Z,54.76
2023-06-18T00:31:36.189Z,54.85
2023-06-18T00:31:57.291Z,54.86
2023-06-18T00:32:18.381Z,54.87
2023-06-18T00:32:39.675Z,54.95
2023-06-18T00:33:00.736Z,54.92
2023-06-18T00:33:21.781Z,54.99
2023-06-18T00:33:42.844Z,55.16
2023-06-18T00:34:03.897Z,55.35
2023-06-18T00:34:24.953Z,55.47
2023-06-18T00:34:46.028Z,55.46
2023-06-18T00:35:07.095Z,55.45
2023-06-18T00:35:28.142Z,55.51
2023-06-18T00:35:49.204Z,55.40
2023-06-18T00:36:10.247Z,55.60
2023-06-18T00:36:31.305Z,55.65
2023-06-18T00:36:52.368Z,55.68
2023-06-18T00:37:13.431Z,55.61
2023-06-18T00:37:34.741Z,55.73
2023-06-18T00:37:55.823Z,55.90
2023-06-18T00:38:16.860Z,55.82
2023-06-18T00:38:37.926Z,55.63
2023-06-18T00:38:58.981Z,55.59
2023-06-18T00:39:20.060Z,55.55
2023-06-18T00:39:41.113Z,55.52
2023-06-18T00:40:02.169Z,55.61
2023-06-18T00:40:23.531Z,55.68
2023-06-18T00:40:44.705Z,55.52
2023-06-18T00:41:05.770Z,55.61
2023-06-18T00:41:26.832Z,55.75
2023-06-18T00:41:47.892Z,55.68
2023-06-18T00:42:09.151Z,55.61
2023-06-18T00:42:30.232Z,55.47
2023-06-18T00:42:51.317Z,55.30
2023-06-18T00:43:12.417Z,55.19
2023-06-18T00:43:33.464Z,55.21
2023-06-18T00:43:54.562Z,55.35
2023-06-18T00:44:15.591Z,55.33
2023-06-18T00:44:36.774Z,55.27
2023-06-18T00:44:57.845Z,55.26
2023-06-18T00:45:18.931Z,55.36
2023-06-18T00:45:40.001Z,55.52
2023-06-18T00:46:01.052Z,55.58
2023-06-18T00:46:22.157Z,55.58
2023-06-18T00:46:43.251Z,55.70
2023-06-18T00:47:04.413Z,55.80
2023-06-18T00:47:25.675Z,55.88
2023-06-18T00:47:46.722Z,55.89
2023-06-18T00:48:08.036Z,55.59
2023-06-18T00:48:29.130Z,55.44
2023-06-18T00:48:50.193Z,55.63
2023-06-18T00:49:11.271Z,55.75
2023-06-18T00:49:32.301Z,55.81
2023-06-18T00:49:53.381Z,55.88
2023-06-18T00:50:14.420Z,55.83
2023-06-18T00:50:35.471Z,55.82
2023-06-18T00:50:56.547Z,55.68
2023-06-18T00:51:17.608Z,55.52
2023-06-18T00:51:38.651Z,55.53
2023-06-18T00:51:59.735Z,55.48
2023-06-18T00:52:20.775Z,55.42
2023-06-18T00:52:41.893Z,55.47
2023-06-18T00:53:02.922Z,55.44
2023-06-18T00:53:24.037Z,55.75
2023-06-18T00:53:45.140Z,55.93
2023-06-18T00:54:06.200Z,55.71
2023-06-18T00:54:27.257Z,55.53
2023-06-18T00:54:48.315Z,55.50
2023-06-18T00:55:09.372Z,55.57
2023-06-18T00:55:30.432Z,55.61
2023-06-18T00:55:51.517Z,55.61
2023-06-18T00:56:12.556Z,55.54
2023-06-18T00:56:33.612Z,55.46
2023-06-18T00:56:54.688Z,55.35
2023-06-18T00:57:15.735Z,55.39
2023-06-18T00:57:36.796Z,55.39
2023-06-18T00:57:57.861Z,55.33
2023-06-18T00:58:18.941Z,55.25
2023-06-18T00:58:40.210Z,55.35
2023-06-18T00:59:01.460Z,55.51
2023-06-18T00:59:22.530Z,55.53
2023-06-18T00:59:43.598Z,55.56
2023-06-18T01:00:04.624Z,55.44
2023-06-18T01:00:25.712Z,55.54
2023-06-18T01:00:46.768Z,55.64
2023-06-18T01:01:08.264Z,55.72
2023-06-18T01:01:29.723Z,55.74
2023-06-18T01:01:51.182Z,55.70
2023-06-18T01:02:12.578Z,55.64
2023-06-18T01:02:38.067Z,55.63
2023-06-18T01:03:01.110Z,55.63
2023-06-18T01:03:22.630Z,55.67
2023-06-18T01:03:44.078Z,55.79
2023-06-18T01:04:05.615Z,55.81
2023-06-18T01:04:27.261Z,55.85
2023-06-18T01:04:48.925Z,55.83
2023-06-18T01:05:10.422Z,55.91
2023-06-18T01:05:31.813Z,55.89
2023-06-18T01:05:53.322Z,55.86
2023-06-18T01:06:14.719Z,55.89
2023-06-18T01:06:36.084Z,55.97
2023-06-18T01:06:57.648Z,56.01
2023-06-18T01:07:22.623Z,56.09
2023-06-18T01:07:47.655Z,56.14
2023-06-18T01:08:10.544Z,56.06
2023-06-18T01:08:31.579Z,56.01
2023-06-18T01:08:52.895Z,56.08
2023-06-18T01:09:14.158Z,56.33
2023-06-18T01:09:35.227Z,56.62
2023-06-18T01:09:56.288Z,56.78
2023-06-18T01:10:17.344Z,56.83
2023-06-18T01:10:38.402Z,56.95
2023-06-18T01:10:59.478Z,56.82
2023-06-18T01:11:20.553Z,56.85
2023-06-18T01:11:41.595Z,56.74
2023-06-18T01:12:02.650Z,56.57
2023-06-18T01:12:23.746Z,56.64
2023-06-18T01:12:44.788Z,56.97
2023-06-18T01:13:05.847Z,57.08
2023-06-18T01:13:26.907Z,56.93
2023-06-18T01:13:47.999Z,56.68
2023-06-18T01:14:09.239Z,56.52
2023-06-18T01:14:30.523Z,56.33
2023-06-18T01:14:51.707Z,56.12
2023-06-18T01:15:12.769Z,56.04
2023-06-18T01:15:33.813Z,56.08
2023-06-18T01:15:54.860Z,56.14
2023-06-18T01:16:16.008Z,56.24
2023-06-18T01:16:37.118Z,56.25
2023-06-18T01:16:58.307Z,56.26
2023-06-18T01:17:19.381Z,56.24
2023-06-18T01:17:40.453Z,56.22
2023-06-18T01:18:01.572Z,56.39
2023-06-18T01:18:22.601Z,56.50
2023-06-18T01:18:43.678Z,56.39
2023-06-18T01:19:04.776Z,56.36
2023-06-18T01:19:25.844Z,56.41
2023-06-18T01:19:47.135Z,56.50
2023-06-18T01:20:08.194Z,56.57
2023-06-18T01:20:29.246Z,56.63
2023-06-18T01:20:50.305Z,56.58
2023-06-18T01:21:11.366Z,56.49
2023-06-18T01:21:32.425Z,56.55
2023-06-18T01:21:53.484Z,56.57
2023-06-18T01:22:14.541Z,56.55
2023-06-18T01:22:35.615Z,56.54
2023-06-18T01:22:56.700Z,56.58
2023-06-18T01:23:17.739Z,56.59
2023-06-18T01:23:39.376Z,56.54
2023-06-18T01:24:00.556Z,56.57
2023-06-18T01:24:21.649Z,56.69
2023-06-18T01:24:42.711Z,56.66
2023-06-18T01:25:03.805Z,56.70
2023-06-18T01:25:24.859Z,56.74
2023-06-18T01:25:45.927Z,56.81
2023-06-18T01:26:06.979Z,56.76
2023-06-18T01:26:28.048Z,56.67
2023-06-18T01:26:49.140Z,56.76
2023-06-18T01:27:10.153Z,56.83
2023-06-18T01:27:31.229Z,56.82
2023-06-18T01:27:52.282Z,56.75
2023-06-18T01:28:13.347Z,56.72
2023-06-18T01:28:34.391Z,56.81
2023-06-18T01:28:55.460Z,56.85
2023-06-18T01:29:16.547Z,56.89
2023-06-18T01:29:37.596Z,56.80
2023-06-18T01:29:58.869Z,56.80
2023-06-18T01:30:20.089Z,56.86
2023-06-18T01:30:41.142Z,56.74
2023-06-18T01:31:02.219Z,56.76
2023-06-18T01:31:23.278Z,56.73
2023-06-18T01:31:44.329Z,56.66
2023-06-18T01:32:05.383Z,56.65
2023-06-18T01:32:26.451Z,56.74
2023-06-18T01:32:47.516Z,56.70
2023-06-18T01:33:08.561Z,56.71
2023-06-18T01:33:29.629Z,56.68
2023-06-18T01:33:50.679Z,56.62
2023-06-18T01:34:11.742Z,56.74
2023-06-18T01:34:32.812Z,56.69
2023-06-18T01:34:53.866Z,56.60
2023-06-18T01:35:14.992Z,56.60
2023-06-18T01:35:36.057Z,56.56
2023-06-18T01:35:57.123Z,56.55
2023-06-18T01:36:18.169Z,56.48
2023-06-18T01:36:39.241Z,56.52
2023-06-18T01:37:00.298Z,56.50
2023-06-18T01:37:21.340Z,56.48
2023-06-18T01:37:42.400Z,56.47
2023-06-18T01:38:03.472Z,56.46
2023-06-18T01:38:24.528Z,56.62
2023-06-18T01:38:45.565Z,56.63
2023-06-18T01:39:06.628Z,56.74
2023-06-18T01:39:27.695Z,56.70
2023-06-18T01:39:48.745Z,56.74
2023-06-18T01:40:09.807Z,56.68
2023-06-18T01:40:31.080Z,56.60
2023-06-18T01:40:52.360Z,56.62
2023-06-18T01:41:13.409Z,56.72
2023-06-18T01:41:34.469Z,56.83
2023-06-18T01:41:55.525Z,56.81
2023-06-18T01:42:16.594Z,56.75
2023-06-18T01:42:37.654Z,56.72
2023-06-18T01:42:58.727Z,56.68
2023-06-18T01:43:19.778Z,56.67
2023-06-18T01:43:40.838Z,56.61
2023-06-18T01:44:01.913Z,56.61
2023-06-18T01:44:22.961Z,56.58
2023-06-18T01:44:44.020Z,56.54
2023-06-18T01:45:05.104Z,56.55
2023-06-18T01:45:26.166Z,56.66
2023-06-18T01:45:47.344Z,56.70
2023-06-18T01:46:08.503Z,56.64
2023-06-18T01:46:29.603Z,56.72
2023-06-18T01:46:50.689Z,56.73
2023-06-18T01:47:11.734Z,56.68
2023-06-18T01:47:32.833Z,56.74
2023-06-18T01:47:53.903Z,56.77
2023-06-18T01:48:14.990Z,56.70
2023-06-18T01:48:36.066Z,56.72
2023-06-18T01:48:57.114Z,56.78
2023-06-18T01:49:18.170Z,56.76
2023-06-18T01:49:39.250Z,56.66
2023-06-18T01:50:00.349Z,56.69
2023-06-18T01:50:21.614Z,56.68
2023-06-18T01:50:42.809Z,56.86
2023-06-18T01:51:03.911Z,57.03
2023-06-18T01:51:25.186Z,57.00
2023-06-18T01:51:46.281Z,56.98
2023-06-18T01:52:07.324Z,56.96
2023-06-18T01:52:28.396Z,56.99
2023-06-18T01:52:49.457Z,56.99
2023-06-18T01:53:10.534Z,56.99
2023-06-18T01:53:31.574Z,57.00
2023-06-18T01:53:52.646Z,56.86
2023-06-18T01:54:13.693Z,56.75
2023-06-18T01:54:34.739Z,56.62
2023-06-18T01:54:55.800Z,56.79
2023-06-18T01:55:16.861Z,56.97
2023-06-18T01:55:37.918Z,56.90
2023-06-18T01:55:58.982Z,56.73
2023-06-18T01:56:20.097Z,56.64
2023-06-18T01:56:41.348Z,56.59
2023-06-18T01:57:02.405Z,56.60
2023-06-18T01:57:23.463Z,56.45
2023-06-18T01:57:44.521Z,56.36
2023-06-18T01:58:05.584Z,56.32
2023-06-18T01:58:26.643Z,56.38
2023-06-18T01:58:47.714Z,56.51
2023-06-18T01:59:08.775Z,56.58
2023-06-18T01:59:29.817Z,56.53
2023-06-18T01:59:50.874Z,56.61
2023-06-18T02:00:11.935Z,56.76
2023-06-18T02:00:33.003Z,56.78
2023-06-18T02:00:54.057Z,56.65
2023-06-18T02:01:15.110Z,56.67
2023-06-18T02:01:36.337Z,56.44
2023-06-18T02:01:57.611Z,56.34
2023-06-18T02:02:18.735Z,56.37
2023-06-18T02:02:39.931Z,56.46
2023-06-18T02:03:01.079Z,56.56
2023-06-18T02:03:22.323Z,56.58
2023-06-18T02:03:43.472Z,56.53
2023-06-18T02:04:04.550Z,56.44
2023-06-18T02:04:25.609Z,56.34
2023-06-18T02:04:46.669Z,56.22
2023-06-18T02:05:07.717Z,56.24
2023-06-18T02:05:28.767Z,56.34
2023-06-18T02:05:49.844Z,56.31
2023-06-18T02:06:10.902Z,56.30
2023-06-18T02:06:31.982Z,56.28
2023-06-18T02:06:53.233Z,56.24
2023-06-18T02:07:14.321Z,56.26
2023-06-18T02:07:35.381Z,56.43
2023-06-18T02:07:56.442Z,56.62
2023-06-18T02:08:17.517Z,56.65
2023-06-18T02:08:38.559Z,56.65
2023-06-18T02:08:59.607Z,56.66
2023-06-18T02:09:20.668Z,56.65
2023-06-18T02:09:41.735Z,56.63
2023-06-18T02:10:02.788Z,56.57
2023-06-18T02:10:24.224Z,56.55
2023-06-18T02:10:45.541Z,56.57
2023-06-18T02:11:06.607Z,56.65
2023-06-18T02:11:27.696Z,56.69
2023-06-18T02:11:48.746Z,56.78
2023-06-18T02:12:10.052Z,56.74
2023-06-18T02:12:31.143Z,56.65
2023-06-18T02:12:52.210Z,56.61
2023-06-18T02:13:13.249Z,56.58
2023-06-18T02:13:34.325Z,56.64
2023-06-18T02:13:55.411Z,56.65
2023-06-18T02:14:16.461Z,56.58
2023-06-18T02:14:37.530Z,56.50
2023-06-18T02:14:58.591Z,56.50
2023-06-18T02:15:19.648Z,56.59
2023-06-18T02:15:40.719Z,56.59
2023-06-18T02:16:01.807Z,56.62
2023-06-18T02:16:22.902Z,56.67
2023-06-18T02:16:43.968Z,56.64
2023-06-18T02:17:04.986Z,56.65
2023-06-18T02:17:26.097Z,56.70
2023-06-18T02:17:47.192Z,56.79
2023-06-18T02:18:08.260Z,56.79
2023-06-18T02:18:29.359Z,56.86
2023-06-18T02:18:50.432Z,56.89
2023-06-18T02:19:11.473Z,56.97
2023-06-18T02:19:32.540Z,56.88
2023-06-18T02:19:53.603Z,56.85
2023-06-18T02:20:14.671Z,56.92
2023-06-18T02:20:35.729Z,56.86
2023-06-18T02:20:56.789Z,57.08
2023-06-18T02:21:17.859Z,57.08
2023-06-18T02:21:38.905Z,57.07
2023-06-18T02:21:59.973Z,56.96
2023-06-18T02:22:21.033Z,56.95
2023-06-18T02:22:42.138Z,57.06
2023-06-18T02:23:03.297Z,57.17
2023-06-18T02:23:24.354Z,57.09
2023-06-18T02:23:45.407Z,57.00
2023-06-18T02:24:06.502Z,56.80
2023-06-18T02:24:27.635Z,56.73
2023-06-18T02:24:48.692Z,56.67
2023-06-18T02:25:09.807Z,56.52
2023-06-18T02:25:30.861Z,56.53
2023-06-18T02:25:51.910Z,56.61
2023-06-18T02:26:12.962Z,56.86
2023-06-18T02:26:34.014Z,57.07
2023-06-18T02:26:55.078Z,57.13
2023-06-18T02:27:16.130Z,57.02
2023-06-18T02:27:37.190Z,57.06
2023-06-18T02:27:58.288Z,57.08
2023-06-18T02:28:19.387Z,57.07
2023-06-18T02:28:40.434Z,57.04
2023-06-18T02:29:01.522Z,57.21
2023-06-18T02:29:22.568Z,57.42
2023-06-18T02:29:43.643Z,57.58
2023-06-18T02:30:04.674Z,57.52
2023-06-18T02:30:25.724Z,57.45
2023-06-18T02:30:46.788Z,57.25
2023-06-18T02:31:07.838Z,57.25
2023-06-18T02:31:28.882Z,57.22
2023-06-18T02:31:49.955Z,57.21
2023-06-18T02:32:11.034Z,57.26
2023-06-18T02:32:32.189Z,57.42
2023-06-18T02:32:53.306Z,57.53
2023-06-18T02:33:14.596Z,57.62
2023-06-18T02:33:35.870Z,57.58
2023-06-18T02:33:56.914Z,57.54
2023-06-18T02:34:17.979Z,57.42
2023-06-18T02:34:39.038Z,57.31
2023-06-18T02:35:00.144Z,57.45
2023-06-18T02:35:21.229Z,57.57
2023-06-18T02:35:42.263Z,57.53
2023-06-18T02:36:03.357Z,57.29
2023-06-18T02:36:24.399Z,57.25
2023-06-18T02:36:45.451Z,57.24
2023-06-18T02:37:06.510Z,57.26
2023-06-18T02:37:27.554Z,57.18
2023-06-18T02:37:48.648Z,57.23
2023-06-18T02:38:09.709Z,57.22
2023-06-18T02:38:30.833Z,57.29
2023-06-18T02:38:51.933Z,57.28
2023-06-18T02:39:13.008Z,57.22
2023-06-18T02:39:34.064Z,57.28
2023-06-18T02:39:55.111Z,57.26
2023-06-18T02:40:16.179Z,57.15
2023-06-18T02:40:37.227Z,57.17
2023-06-18T02:40:58.295Z,57.26
2023-06-18T02:41:19.352Z,57.25
2023-06-18T02:41:40.419Z,57.36
2023-06-18T02:42:01.483Z,57.39
2023-06-18T02:42:22.527Z,57.26
2023-06-18T02:42:43.592Z,57.18
2023-06-18T02:43:04.654Z,57.15
2023-06-18T02:43:25.712Z,57.07
2023-06-18T02:43:47.003Z,57.09
2023-06-18T02:44:08.275Z,57.17
2023-06-18T02:44:29.362Z,57.05
2023-06-18T02:44:50.570Z,57.06
2023-06-18T02:45:11.644Z,57.03
2023-06-18T02:45:32.672Z,56.94
2023-06-18T02:45:53.828Z,57.00
2023-06-18T02:46:14.904Z,57.20
2023-06-18T02:46:36.014Z,57.32
2023-06-18T02:46:57.117Z,57.36
2023-06-18T02:47:18.187Z,57.34
2023-06-18T02:47:39.271Z,57.34
2023-06-18T02:48:00.436Z,57.28
2023-06-18T02:48:21.527Z,57.22
2023-06-18T02:48:43.133Z,57.18
2023-06-18T02:49:04.222Z,57.14
2023-06-18T02:49:25.505Z,57.22
2023-06-18T02:49:46.554Z,57.22
2023-06-18T02:50:07.610Z,57.32
2023-06-18T02:50:28.688Z,57.43
2023-06-18T02:50:49.722Z,57.46
2023-06-18T02:51:10.788Z,57.39
2023-06-18T02:51:31.846Z,57.34
2023-06-18T02:51:52.915Z,57.44
2023-06-18T02:52:13.955Z,57.50
2023-06-18T02:52:35.034Z,57.50
2023-06-18T02:52:56.090Z,57.54
2023-06-18T02:53:17.143Z,57.68
2023-06-18T02:53:38.238Z,57.60
2023-06-18T02:53:59.277Z,57.47
2023-06-18T02:54:20.568Z,57.46
2023-06-18T02:54:41.850Z,57.58
2023-06-18T02:55:02.909Z,57.68
2023-06-18T02:55:23.970Z,57.78
2023-06-18T02:55:45.036Z,57.95
2023-06-18T02:56:06.087Z,57.99
2023-06-18T02:56:27.145Z,58.14
2023-06-18T02:56:48.219Z,58.10
2023-06-18T02:57:09.258Z,58.20
2023-06-18T02:57:30.337Z,58.16
2023-06-18T02:57:51.389Z,58.17
2023-06-18T02:58:12.440Z,58.20
2023-06-18T02:58:33.505Z,58.11
2023-06-18T02:58:54.552Z,57.98
2023-06-18T02:59:15.615Z,57.83
2023-06-18T02:59:36.703Z,57.84
2023-06-18T02:59:58.006Z,57.90
2023-06-18T03:00:19.178Z,57.84
2023-06-18T03:00:40.330Z,57.81
2023-06-18T03:01:01.479Z,57.77
2023-06-18T03:01:22.686Z,57.58
2023-06-18T03:01:44.241Z,57.46
2023-06-18T03:02:05.274Z,57.48
2023-06-18T03:02:26.348Z,57.64
2023-06-18T03:02:47.414Z,57.79
2023-06-18T03:03:08.501Z,57.73
2023-06-18T03:03:29.573Z,57.61
2023-06-18T03:03:50.623Z,57.43
2023-06-18T03:04:11.686Z,57.40
2023-06-18T03:04:32.804Z,57.37
2023-06-18T03:04:53.885Z,57.34
2023-06-18T03:05:15.170Z,57.33
2023-06-18T03:05:36.223Z,57.40
2023-06-18T03:05:57.278Z,57.48
2023-06-18T03:06:18.343Z,57.40
2023-06-18T03:06:39.380Z,57.41
2023-06-18T03:07:00.449Z,57.40
2023-06-18T03:07:21.506Z,57.36
2023-06-18T03:07:42.585Z,57.34
2023-06-18T03:08:03.644Z,57.34
2023-06-18T03:08:24.686Z,57.26
2023-06-18T03:08:45.771Z,57.27
2023-06-18T03:09:06.817Z,57.24
2023-06-18T03:09:27.866Z,57.20
2023-06-18T03:09:48.947Z,57.12
2023-06-18T03:10:10.191Z,57.07
2023-06-18T03:10:31.278Z,57.13
2023-06-18T03:10:52.350Z,57.17
2023-06-18T03:11:13.401Z,57.29
2023-06-18T03:11:34.460Z,57.37
2023-06-18T03:11:55.533Z,57.39
2023-06-18T03:12:16.584Z,57.40
2023-06-18T03:12:37.668Z,57.37
2023-06-18T03:12:58.722Z,57.29
2023-06-18T03:13:19.791Z,57.21
2023-06-18T03:13:40.866Z,57.18
2023-06-18T03:14:01.972Z,57.17
2023-06-18T03:14:23.021Z,57.35
2023-06-18T03:14:44.055Z,57.47
2023-06-18T03:15:05.114Z,57.66
2023-06-18T03:15:26.222Z,57.83
2023-06-18T03:15:47.519Z,57.81
2023-06-18T03:16:08.624Z,57.80
2023-06-18T03:16:29.727Z,57.81
2023-06-18T03:16:50.798Z,57.78
2023-06-18T03:17:11.842Z,57.77
2023-06-18T03:17:32.906Z,57.76
2023-06-18T03:17:54.007Z,57.75
2023-06-18T03:18:15.063Z,57.68
2023-06-18T03:18:36.118Z,57.62
2023-06-18T03:18:57.196Z,57.65
2023-06-18T03:19:18.241Z,57.64
2023-06-18T03:19:39.313Z,57.65
2023-06-18T03:20:00.364Z,57.71
2023-06-18T03:20:21.709Z,57.89
2023-06-18T03:20:42.948Z,58.04
2023-06-18T03:21:04.068Z,57.83
2023-06-18T03:21:25.104Z,57.73
2023-06-18T03:21:46.162Z,57.53
2023-06-18T03:22:07.224Z,57.42
2023-06-18T03:22:28.285Z,57.54
2023-06-18T03:22:49.332Z,57.71
2023-06-18T03:23:10.388Z,57.76
2023-06-18T03:23:31.481Z,57.73
2023-06-18T03:23:52.627Z,57.82
2023-06-18T03:24:13.682Z,57.77
2023-06-18T03:24:34.785Z,57.82
2023-06-18T03:24:55.823Z,57.77
2023-06-18T03:25:16.877Z,57.79
2023-06-18T03:25:37.936Z,57.76
2023-06-18T03:25:59.219Z,57.74
2023-06-18T03:26:20.474Z,57.89
2023-06-18T03:26:41.536Z,57.88
2023-06-18T03:27:02.611Z,57.89
2023-06-18T03:27:23.652Z,57.91
2023-06-18T03:27:44.706Z,57.83
2023-06-18T03:28:05.767Z,58.02
2023-06-18T03:28:26.826Z,58.13
2023-06-18T03:28:47.866Z,58.29
2023-06-18T03:29:08.937Z,58.20
2023-06-18T03:29:29.996Z,58.14
2023-06-18T03:29:51.076Z,58.16
2023-06-18T03:30:12.113Z,58.10
2023-06-18T03:30:33.156Z,57.98
2023-06-18T03:30:54.211Z,57.92
2023-06-18T03:31:15.478Z,57.91
2023-06-18T03:31:36.587Z,57.91
2023-06-18T03:31:57.636Z,58.01
2023-06-18T03:32:18.682Z,58.05
2023-06-18T03:32:39.771Z,58.12
2023-06-18T03:33:00.844Z,58.26
2023-06-18T03:33:21.894Z,58.40
2023-06-18T03:33:42.955Z,58.51
2023-06-18T03:34:04.005Z,58.58
2023-06-18T03:34:25.066Z,58.66
2023-06-18T03:34:46.113Z,58.76
2023-06-18T03:35:07.227Z,58.84
2023-06-18T03:35:28.326Z,58.89
2023-06-18T03:35:49.375Z,59.03
2023-06-18T03:36:10.439Z,58.97
2023-06-18T03:36:31.711Z,58.90
2023-06-18T03:36:52.971Z,59.05
2023-06-18T03:37:14.020Z,59.25
2023-06-18T03:37:35.086Z,59.24
2023-06-18T03:37:56.154Z,59.24
2023-06-18T03:38:17.228Z,59.23
2023-06-18T03:38:38.266Z,59.41
2023-06-18T03:38:59.343Z,59.44
2023-06-18T03:39:20.396Z,59.29
2023-06-18T03:39:41.434Z,59.19
2023-06-18T03:40:02.505Z,59.15
2023-06-18T03:40:23.789Z,59.06
2023-06-18T03:40:44.952Z,59.04
2023-06-18T03:41:06.052Z,59.07
2023-06-18T03:41:27.059Z,59.06
2023-06-18T03:41:48.339Z,58.96
2023-06-18T03:42:09.437Z,59.00
2023-06-18T03:42:30.492Z,59.03
2023-06-18T03:42:51.562Z,58.98
2023-06-18T03:43:12.661Z,58.95
2023-06-18T03:43:33.704Z,58.97
2023-06-18T03:43:54.760Z,58.99
2023-06-18T03:44:15.798Z,59.05
2023-06-18T03:44:36.880Z,59.17
2023-06-18T03:44:57.906Z,59.20
2023-06-18T03:45:19.002Z,59.24
2023-06-18T03:45:40.105Z,59.22
2023-06-18T03:46:01.244Z,59.19
2023-06-18T03:46:22.355Z,59.24
2023-06-18T03:46:43.434Z,59.39
2023-06-18T03:47:04.518Z,59.40
2023-06-18T03:47:25.890Z,59.40
2023-06-18T03:47:46.973Z,59.39
2023-06-18T03:48:08.142Z,59.42
2023-06-18T03:48:29.155Z,59.52
2023-06-18T03:48:50.216Z,59.54
2023-06-18T03:49:11.270Z,59.61
2023-06-18T03:49:32.343Z,59.57
2023-06-18T03:49:53.393Z,59.55
2023-06-18T03:50:14.456Z,59.55
2023-06-18T03:50:35.520Z,59.58
2023-06-18T03:50:56.576Z,59.58
2023-06-18T03:51:17.630Z,59.60
2023-06-18T03:51:38.702Z,59.79
2023-06-18T03:51:59.759Z,59.84
2023-06-18T03:52:21.040Z,59.85
2023-06-18T03:52:42.305Z,59.81
2023-06-18T03:53:03.386Z,59.72
2023-06-18T03:53:24.445Z,59.66
2023-06-18T03:53:45.498Z,59.60
2023-06-18T03:54:06.591Z,59.58
2023-06-18T03:54:27.613Z,59.54
2023-06-18T03:54:48.672Z,59.58
2023-06-18T03:55:09.728Z,59.68
2023-06-18T03:55:30.781Z,59.69
2023-06-18T03:55:51.849Z,59.66
2023-06-18T03:56:12.923Z,59.63
2023-06-18T03:56:33.965Z,59.76
2023-06-18T03:56:55.013Z,59.70
2023-06-18T03:57:16.077Z,59.69
2023-06-18T03:57:37.346Z,59.75
2023-06-18T03:57:58.621Z,59.78
2023-06-18T03:58:19.678Z,59.88
2023-06-18T03:58:40.747Z,59.92
2023-06-18T03:59:01.789Z,59.90
2023-06-18T03:59:22.942Z,59.94
2023-06-18T03:59:43.965Z,59.93
2023-06-18T04:00:05.052Z,60.08
2023-06-18T04:00:26.108Z,60.11
2023-06-18T04:00:47.182Z,60.12
2023-06-18T04:01:08.241Z,60.11
2023-06-18T04:01:29.398Z,60.07
2023-06-18T04:01:50.571Z,60.06
2023-06-18T04:02:12.716Z,60.07
2023-06-18T04:02:35.733Z,60.04
2023-06-18T04:02:57.056Z,60.03
2023-06-18T04:03:18.712Z,60.07
2023-06-18T04:03:39.906Z,60.06
2023-06-18T04:04:01.040Z,59.93
2023-06-18T04:04:22.103Z,59.91
2023-06-18T04:04:43.142Z,59.88
2023-06-18T04:05:04.257Z,59.89
2023-06-18T04:05:25.321Z,59.74
2023-06-18T04:05:46.349Z,59.81
2023-06-18T04:06:07.433Z,59.70
2023-06-18T04:06:28.640Z,59.55
2023-06-18T04:06:49.685Z,59.60
2023-06-18T04:07:10.745Z,59.64
2023-06-18T04:07:31.830Z,59.56
2023-06-18T04:07:52.895Z,59.55
2023-06-18T04:08:14.126Z,59.48
2023-06-18T04:08:35.288Z,59.53
2023-06-18T04:08:56.353Z,59.63
2023-06-18T04:09:18.776Z,59.64
2023-06-18T04:09:41.451Z,59.62
2023-06-18T04:10:02.494Z,59.61
2023-06-18T04:10:23.844Z,59.60
2023-06-18T04:10:45.010Z,59.67
2023-06-18T04:11:06.065Z,59.64
2023-06-18T04:11:27.127Z,59.76
2023-06-18T04:11:48.191Z,59.83
2023-06-18T04:12:09.307Z,59.88
2023-06-18T04:12:30.327Z,59.82
2023-06-18T04:12:51.384Z,59.79
2023-06-18T04:13:12.436Z,59.92
2023-06-18T04:13:33.716Z,59.87
2023-06-18T04:13:54.992Z,59.94
2023-06-18T04:14:16.046Z,59.97
2023-06-18T04:14:37.113Z,59.97
2023-06-18T04:14:58.164Z,59.93
2023-06-18T04:15:19.237Z,59.95
2023-06-18T04:15:40.312Z,59.95
2023-06-18T04:16:01.362Z,59.91
2023-06-18T04:16:22.422Z,59.77
2023-06-18T04:16:43.478Z,59.57
2023-06-18T04:17:04.556Z,59.43
2023-06-18T04:17:25.595Z,59.40
2023-06-18T04:17:46.671Z,59.44
2023-06-18T04:18:07.717Z,59.48
2023-06-18T04:18:28.755Z,59.45
2023-06-18T04:18:49.872Z,59.48
2023-06-18T04:19:11.162Z,59.39
2023-06-18T04:19:32.246Z,59.28
2023-06-18T04:19:53.375Z,59.35
2023-06-18T04:20:14.495Z,59.49
2023-06-18T04:20:35.593Z,59.44
2023-06-18T04:20:56.647Z,59.48
2023-06-18T04:21:17.705Z,59.47
2023-06-18T04:21:38.772Z,59.47
2023-06-18T04:21:59.853Z,59.49
2023-06-18T04:22:20.907Z,59.39
2023-06-18T04:22:41.952Z,59.25
2023-06-18T04:23:03.013Z,59.11
2023-06-18T04:23:24.113Z,59.02
2023-06-18T04:23:45.170Z,58.97
2023-06-18T04:24:06.459Z,58.99
2023-06-18T04:24:27.645Z,59.05
2023-06-18T04:24:48.745Z,59.01
2023-06-18T04:25:09.828Z,59.06
2023-06-18T04:25:30.849Z,59.04
2023-06-18T04:25:51.899Z,59.12
2023-06-18T04:26:12.961Z,59.07
2023-06-18T04:26:34.021Z,59.11
2023-06-18T04:26:55.087Z,59.19
2023-06-18T04:27:16.188Z,59.24
2023-06-18T04:27:37.226Z,59.24
2023-06-18T04:27:58.278Z,59.27
2023-06-18T04:28:19.334Z,59.19
2023-06-18T04:28:40.386Z,59.14
2023-06-18T04:29:01.451Z,59.16
2023-06-18T04:29:22.754Z,59.04
2023-06-18T04:29:43.819Z,58.93
2023-06-18T04:30:04.869Z,58.83
2023-06-18T04:30:25.949Z,58.78
2023-06-18T04:30:46.977Z,58.67
2023-06-18T04:31:08.059Z,58.53
2023-06-18T04:31:29.107Z,58.46
2023-06-18T04:31:50.154Z,58.46
2023-06-18T04:32:11.209Z,58.33